sensor_id;sensor_type;location;lat;lon;timestamp;pressure;altitude;pressure_sealevel;temperature;humidity
78182;BME280;67441;50.116;8.696;2023-04-15T00:00:12;99464.66;;;8.43;63.39
78182;BME280;67441;50.116;8.696;2023-04-15T00:00:38;99245.56;;;7.13;62.91
78182;BME280;67441;50.116;8.696;2023-04-15T00:01:05;99283.06;;;7.15;63.21
78182;BME280;67441;50.116;8.696;2023-04-15T00:01:32;99438.34;;;8.24;63.30
78182;BME280;67441;50.116;8.696;2023-04-15T00:02:13;99474.28;;;8.44;63.45
78182;BME280;67441;50.116;8.696;2023-04-15T00:02:39;99384.84;;;7.95;63.28
78182;BME280;67441;50.116;8.696;2023-04-15T00:03:08;99277.97;;;7.31;63.31
78182;BME280;67441;50.116;8.696;2023-04-15T00:03:34;99263.06;;;7.25;63.34
78182;BME280;67441;50.116;8.696;2023-04-15T00:04:00;99467.25;;;8.38;63.33
78182;BME280;67441;50.116;8.696;2023-04-15T00:04:26;99421.66;;;8.12;63.39
78182;BME280;67441;50.116;8.696;2023-04-15T00:04:53;99412.81;;;7.99;63.73
78182;BME280;67441;50.116;8.696;2023-04-15T00:05:19;99469.03;;;8.39;63.65
78182;BME280;67441;50.116;8.696;2023-04-15T00:05:45;99362.91;;;7.79;63.10
78182;BME280;67441;50.116;8.696;2023-04-15T00:06:12;99348.88;;;7.68;63.20
78182;BME280;67441;50.116;8.696;2023-04-15T00:06:40;99465.56;;;8.42;63.41
78182;BME280;67441;50.116;8.696;2023-04-15T00:07:09;99261.28;;;7.20;63.18
78182;BME280;67441;50.116;8.696;2023-04-15T00:07:36;99475.16;;;8.44;63.43
78182;BME280;67441;50.116;8.696;2023-04-15T00:08:02;99378.69;;;7.90;63.70
78182;BME280;67441;50.116;8.696;2023-04-15T00:08:30;99239.44;;;7.11;63.40
78182;BME280;67441;50.116;8.696;2023-04-15T00:08:56;99468.16;;;8.45;63.09
78182;BME280;67441;50.116;8.696;2023-04-15T00:09:22;99345.34;;;7.59;63.38
78182;BME280;67441;50.116;8.696;2023-04-15T00:09:48;99465.53;;;8.45;63.21
78182;BME280;67441;50.116;8.696;2023-04-15T00:10:13;99461.16;;;8.41;63.63
78182;BME280;67441;50.116;8.696;2023-04-15T00:10:42;99469.03;;;8.42;63.58
78182;BME280;67441;50.116;8.696;2023-04-15T00:11:11;99463.81;;;8.42;63.57
78182;BME280;67441;50.116;8.696;2023-04-15T00:11:38;99248.16;;;7.12;63.73
78182;BME280;67441;50.116;8.696;2023-04-15T00:12:07;99475.03;;;8.30;63.67
78182;BME280;67441;50.116;8.696;2023-04-15T00:12:35;99386.50;;;7.80;63.75
78182;BME280;67441;50.116;8.696;2023-04-15T00:13:01;99255.00;;;6.96;63.44
78182;BME280;67441;50.116;8.696;2023-04-15T00:13:29;99308.38;;;7.18;63.96
78182;BME280;67441;50.116;8.696;2023-04-15T00:13:58;99267.19;;;6.93;64.02
78182;BME280;67441;50.116;8.696;2023-04-15T00:14:25;99461.84;;;8.17;63.73
78182;BME280;67441;50.116;8.696;2023-04-15T00:14:50;99463.56;;;8.10;64.29
78182;BME280;67441;50.116;8.696;2023-04-15T00:15:21;99396.91;;;7.70;63.94
78182;BME280;67441;50.116;8.696;2023-04-15T00:15:47;99466.16;;;8.04;63.93
78182;BME280;67441;50.116;8.696;2023-04-15T00:16:13;99478.38;;;8.00;64.63
78182;BME280;67441;50.116;8.696;2023-04-15T00:16:39;99466.16;;;8.05;64.25
78182;BME280;67441;50.116;8.696;2023-04-15T00:17:05;99287.25;;;6.95;64.35
78182;BME280;67441;50.116;8.696;2023-04-15T00:17:34;99359.09;;;7.31;64.73
78182;BME280;67441;50.116;8.696;2023-04-15T00:18:00;99400.38;;;7.66;64.44
78182;BME280;67441;50.116;8.696;2023-04-15T00:18:30;99482.78;;;8.07;64.12
78182;BME280;67441;50.116;8.696;2023-04-15T00:18:56;99468.78;;;8.07;64.39
78182;BME280;67441;50.116;8.696;2023-04-15T00:19:22;99467.91;;;8.09;64.25
78182;BME280;67441;50.116;8.696;2023-04-15T00:19:52;99479.34;;;8.15;64.29
78182;BME280;67441;50.116;8.696;2023-04-15T00:20:19;99258.38;;;6.81;64.35
78182;BME280;67441;50.116;8.696;2023-04-15T00:20:45;99344.31;;;7.41;63.92
78182;BME280;67441;50.116;8.696;2023-04-15T00:21:15;99341.66;;;7.37;64.32
78182;BME280;67441;50.116;8.696;2023-04-15T00:21:43;99466.22;;;8.15;63.88
78182;BME280;67441;50.116;8.696;2023-04-15T00:22:09;99477.59;;;8.15;64.13
78182;BME280;67441;50.116;8.696;2023-04-15T00:22:38;99465.34;;;8.17;64.32
78182;BME280;67441;50.116;8.696;2023-04-15T00:23:03;99460.97;;;8.13;64.33
78182;BME280;67441;50.116;8.696;2023-04-15T00:23:32;99464.50;;;8.18;64.03
78182;BME280;67441;50.116;8.696;2023-04-15T00:24:01;99341.78;;;7.51;64.20
78182;BME280;67441;50.116;8.696;2023-04-15T00:24:27;99467.16;;;8.24;64.01
78182;BME280;67441;50.116;8.696;2023-04-15T00:24:53;99343.56;;;7.57;64.09
78182;BME280;67441;50.116;8.696;2023-04-15T00:25:25;99462.78;;;8.26;63.82
78182;BME280;67441;50.116;8.696;2023-04-15T00:25:51;99460.16;;;8.23;63.69
78182;BME280;67441;50.116;8.696;2023-04-15T00:26:17;99351.47;;;7.65;63.63
78182;BME280;67441;50.116;8.696;2023-04-15T00:26:50;99409.38;;;8.06;63.70
78182;BME280;67441;50.116;8.696;2023-04-15T00:27:18;99319.00;;;7.41;63.38
78182;BME280;67441;50.116;8.696;2023-04-15T00:27:45;99456.72;;;8.32;63.74
78182;BME280;67441;50.116;8.696;2023-04-15T00:28:11;99334.91;;;7.67;63.56
78182;BME280;67441;50.116;8.696;2023-04-15T00:28:40;99461.09;;;8.36;63.43
78182;BME280;67441;50.116;8.696;2023-04-15T00:29:06;99405.88;;;8.10;63.45
78182;BME280;67441;50.116;8.696;2023-04-15T00:29:33;99450.66;;;8.41;63.32
78182;BME280;67441;50.116;8.696;2023-04-15T00:29:59;99319.94;;;7.48;63.37
78182;BME280;67441;50.116;8.696;2023-04-15T00:30:25;99451.50;;;8.38;63.32
78182;BME280;67441;50.116;8.696;2023-04-15T00:30:54;99439.19;;;8.26;63.27
78182;BME280;67441;50.116;8.696;2023-04-15T00:31:26;99380.41;;;7.81;63.34
78182;BME280;67441;50.116;8.696;2023-04-15T00:31:56;99232.34;;;6.98;63.82
78182;BME280;67441;50.116;8.696;2023-04-15T00:32:24;99456.72;;;8.33;63.88
78182;BME280;67441;50.116;8.696;2023-04-15T00:32:51;99453.25;;;8.38;63.58
78182;BME280;67441;50.116;8.696;2023-04-15T00:33:20;99456.75;;;8.35;63.79
78182;BME280;67441;50.116;8.696;2023-04-15T00:33:47;99377.88;;;7.94;63.12
78182;BME280;67441;50.116;8.696;2023-04-15T00:34:18;99255.19;;;7.21;63.49
78182;BME280;67441;50.116;8.696;2023-04-15T00:35:15;99459.34;;;8.37;63.32
78182;BME280;67441;50.116;8.696;2023-04-15T00:35:42;99448.03;;;8.38;63.11
78182;BME280;67441;50.116;8.696;2023-04-15T00:36:08;99444.56;;;8.39;63.05
78182;BME280;67441;50.116;8.696;2023-04-15T00:36:38;99449.81;;;8.42;63.35
78182;BME280;67441;50.116;8.696;2023-04-15T00:37:04;99447.19;;;8.43;63.03
78182;BME280;67441;50.116;8.696;2023-04-15T00:37:30;99449.78;;;8.39;63.66
78182;BME280;67441;50.116;8.696;2023-04-15T00:37:59;99336.66;;;7.67;63.38
78182;BME280;67441;50.116;8.696;2023-04-15T00:38:25;99279.66;;;7.26;63.51
78182;BME280;67441;50.116;8.696;2023-04-15T00:38:55;99455.03;;;8.39;63.37
78182;BME280;67441;50.116;8.696;2023-04-15T00:39:24;99459.34;;;8.37;63.79
78182;BME280;67441;50.116;8.696;2023-04-15T00:39:52;99452.34;;;8.34;63.72
78182;BME280;67441;50.116;8.696;2023-04-15T00:40:24;99344.56;;;7.73;63.22
78182;BME280;67441;50.116;8.696;2023-04-15T00:40:54;99449.63;;;8.14;63.64
78182;BME280;67441;50.116;8.696;2023-04-15T00:41:21;99454.78;;;8.06;64.02
78182;BME280;67441;50.116;8.696;2023-04-15T00:41:53;99453.09;;;8.12;64.15
78182;BME280;67441;50.116;8.696;2023-04-15T00:42:20;99447.81;;;8.10;64.34
78182;BME280;67441;50.116;8.696;2023-04-15T00:42:50;99236.59;;;6.82;64.25
78182;BME280;67441;50.116;8.696;2023-04-15T00:43:18;99362.78;;;7.57;64.12
78182;BME280;67441;50.116;8.696;2023-04-15T00:43:59;99332.91;;;7.28;64.21
78182;BME280;67441;50.116;8.696;2023-04-15T00:44:28;99304.03;;;7.19;64.27
78182;BME280;67441;50.116;8.696;2023-04-15T00:45:07;99227.81;;;6.74;63.88
78182;BME280;67441;50.116;8.696;2023-04-15T00:45:36;99454.81;;;8.08;64.29
78182;BME280;67441;50.116;8.696;2023-04-15T00:46:04;99256.81;;;7.05;64.14
78182;BME280;67441;50.116;8.696;2023-04-15T00:46:32;99257.66;;;7.01;63.93
78182;BME280;67441;50.116;8.696;2023-04-15T00:47:05;99462.66;;;8.05;64.07
78182;BME280;67441;50.116;8.696;2023-04-15T00:47:38;99447.81;;;8.05;64.34
78182;BME280;67441;50.116;8.696;2023-04-15T00:48:06;99399.59;;;7.80;63.98
78182;BME280;67441;50.116;8.696;2023-04-15T00:48:34;99445.22;;;8.13;64.55
78182;BME280;67441;50.116;8.696;2023-04-15T00:49:03;99258.56;;;7.04;64.17
78182;BME280;67441;50.116;8.696;2023-04-15T00:49:32;99330.41;;;7.46;64.01
78182;BME280;67441;50.116;8.696;2023-04-15T00:49:58;99372.47;;;7.69;64.42
78182;BME280;67441;50.116;8.696;2023-04-15T00:50:32;99378.63;;;7.77;63.72
78182;BME280;67441;50.116;8.696;2023-04-15T00:50:59;99444.41;;;8.19;63.63
78182;BME280;67441;50.116;8.696;2023-04-15T00:51:28;99367.25;;;7.75;64.13
78182;BME280;67441;50.116;8.696;2023-04-15T00:51:54;99258.59;;;7.09;63.72
78182;BME280;67441;50.116;8.696;2023-04-15T00:52:21;99265.56;;;7.10;63.63
78182;BME280;67441;50.116;8.696;2023-04-15T00:52:47;99368.13;;;7.76;63.52
78182;BME280;67441;50.116;8.696;2023-04-15T00:53:14;99447.88;;;8.21;63.66
78182;BME280;67441;50.116;8.696;2023-04-15T00:53:42;99443.53;;;8.18;64.17
78182;BME280;67441;50.116;8.696;2023-04-15T00:54:08;99455.75;;;8.21;63.78
78182;BME280;67441;50.116;8.696;2023-04-15T00:54:37;99447.00;;;8.17;63.96
78182;BME280;67441;50.116;8.696;2023-04-15T00:55:02;99449.56;;;8.09;63.97
78182;BME280;67441;50.116;8.696;2023-04-15T00:55:32;99430.25;;;7.92;64.37
78182;BME280;67441;50.116;8.696;2023-04-15T00:55:58;99354.03;;;7.54;64.54
78182;BME280;67441;50.116;8.696;2023-04-15T00:56:25;99333.81;;;7.37;64.42
78182;BME280;67441;50.116;8.696;2023-04-15T00:56:55;99443.44;;;8.04;64.42
78182;BME280;67441;50.116;8.696;2023-04-15T00:57:23;99382.94;;;7.69;64.38
78182;BME280;67441;50.116;8.696;2023-04-15T00:57:50;99448.69;;;8.09;64.69
78182;BME280;67441;50.116;8.696;2023-04-15T00:58:17;99288.28;;;7.15;64.40
78182;BME280;67441;50.116;8.696;2023-04-15T00:58:44;99439.94;;;8.07;64.21
78182;BME280;67441;50.116;8.696;2023-04-15T00:59:10;99323.34;;;7.37;64.54
78182;BME280;67441;50.116;8.696;2023-04-15T00:59:42;99462.69;;;8.09;64.44
78182;BME280;67441;50.116;8.696;2023-04-15T01:00:08;99447.84;;;8.12;64.10
78182;BME280;67441;50.116;8.696;2023-04-15T01:00:40;99444.34;;;8.13;64.55
78182;BME280;67441;50.116;8.696;2023-04-15T01:01:11;99444.38;;;8.14;64.29
78182;BME280;67441;50.116;8.696;2023-04-15T01:01:43;99448.75;;;8.15;64.35
78182;BME280;67441;50.116;8.696;2023-04-15T01:02:13;99397.00;;;7.80;63.77
78182;BME280;67441;50.116;8.696;2023-04-15T01:02:43;99443.44;;;8.06;63.92
78182;BME280;67441;50.116;8.696;2023-04-15T01:03:08;99387.28;;;7.62;64.22
78182;BME280;67441;50.116;8.696;2023-04-15T01:03:43;99262.88;;;6.98;64.14
78182;BME280;67441;50.116;8.696;2023-04-15T01:04:09;99316.31;;;7.30;64.59
78182;BME280;67441;50.116;8.696;2023-04-15T01:04:39;99376.81;;;7.66;64.33
78182;BME280;67441;50.116;8.696;2023-04-15T01:05:10;99290.84;;;7.06;64.27
78182;BME280;67441;50.116;8.696;2023-04-15T01:05:37;99449.53;;;8.02;64.41
78182;BME280;67441;50.116;8.696;2023-04-15T01:06:09;99339.00;;;7.30;64.32
78182;BME280;67441;50.116;8.696;2023-04-15T01:06:36;99332.06;;;7.36;64.12
78182;BME280;67441;50.116;8.696;2023-04-15T01:07:02;99305.78;;;7.23;64.37
78182;BME280;67441;50.116;8.696;2023-04-15T01:07:31;99343.41;;;7.35;64.26
78182;BME280;67441;50.116;8.696;2023-04-15T01:07:58;99247.94;;;6.83;64.49
78182;BME280;67441;50.116;8.696;2023-04-15T01:08:28;99451.31;;;8.04;64.19
78182;BME280;67441;50.116;8.696;2023-04-15T01:09:01;99242.66;;;6.77;64.43
78182;BME280;67441;50.116;8.696;2023-04-15T01:09:31;99382.88;;;7.60;64.56
78182;BME280;67441;50.116;8.696;2023-04-15T01:10:03;99449.56;;;8.05;64.82
78182;BME280;67441;50.116;8.696;2023-04-15T01:11:08;99262.81;;;6.90;64.58
78182;BME280;67441;50.116;8.696;2023-04-15T01:11:38;99262.00;;;6.97;64.96
78182;BME280;67441;50.116;8.696;2023-04-15T01:12:13;99391.66;;;7.67;64.65
78182;BME280;67441;50.116;8.696;2023-04-15T01:12:41;99325.09;;;7.35;64.78
78182;BME280;67441;50.116;8.696;2023-04-15T01:13:08;99443.41;;;8.01;64.96
78182;BME280;67441;50.116;8.696;2023-04-15T01:13:38;99448.63;;;7.97;64.32
78182;BME280;67441;50.116;8.696;2023-04-15T01:14:08;99439.88;;;7.95;64.35
78182;BME280;67441;50.116;8.696;2023-04-15T01:14:35;99254.00;;;6.80;65.07
78182;BME280;67441;50.116;8.696;2023-04-15T01:15:04;99258.44;;;6.86;64.32
78182;BME280;67441;50.116;8.696;2023-04-15T01:15:33;99318.03;;;7.25;63.62
78182;BME280;67441;50.116;8.696;2023-04-15T01:16:03;99375.81;;;7.48;63.66
78182;BME280;67441;50.116;8.696;2023-04-15T01:16:30;99334.59;;;7.23;64.04
78182;BME280;67441;50.116;8.696;2023-04-15T01:16:59;99467.81;;;7.91;64.03
78182;BME280;67441;50.116;8.696;2023-04-15T01:17:32;99443.28;;;7.86;63.66
78182;BME280;67441;50.116;8.696;2023-04-15T01:18:10;99260.13;;;6.79;63.96
78182;BME280;67441;50.116;8.696;2023-04-15T01:18:37;99461.72;;;7.95;63.94
78182;BME280;67441;50.116;8.696;2023-04-15T01:19:04;99441.59;;;7.93;64.10
78182;BME280;67441;50.116;8.696;2023-04-15T01:19:35;99256.63;;;6.80;64.17
78182;BME280;67441;50.116;8.696;2023-04-15T01:20:08;99441.59;;;7.93;63.99
78182;BME280;67441;50.116;8.696;2023-04-15T01:20:43;99325.03;;;7.28;63.97
78182;BME280;67441;50.116;8.696;2023-04-15T01:21:15;99447.72;;;7.96;64.37
78182;BME280;67441;50.116;8.696;2023-04-15T01:21:47;99328.50;;;7.27;64.02
78182;BME280;67441;50.116;8.696;2023-04-15T01:22:13;99276.75;;;6.92;64.11
78182;BME280;67441;50.116;8.696;2023-04-15T01:22:43;99327.69;;;7.32;64.14
78182;BME280;67441;50.116;8.696;2023-04-15T01:23:12;99378.53;;;7.65;63.94
78182;BME280;67441;50.116;8.696;2023-04-15T01:23:39;99443.41;;;8.03;64.01
78182;BME280;67441;50.116;8.696;2023-04-15T01:24:10;99235.72;;;6.83;63.73
78182;BME280;67441;50.116;8.696;2023-04-15T01:24:44;99319.78;;;7.26;63.81
78182;BME280;67441;50.116;8.696;2023-04-15T01:25:17;99363.63;;;7.58;64.12
78182;BME280;67441;50.116;8.696;2023-04-15T01:25:45;99368.06;;;7.65;63.62
78182;BME280;67441;50.116;8.696;2023-04-15T01:26:15;99452.19;;;8.08;64.17
78182;BME280;67441;50.116;8.696;2023-04-15T01:26:42;99266.34;;;6.98;63.99
78182;BME280;67441;50.116;8.696;2023-04-15T01:27:10;99452.22;;;8.13;64.05
78182;BME280;67441;50.116;8.696;2023-04-15T01:27:42;99330.38;;;7.43;63.79
78182;BME280;67441;50.116;8.696;2023-04-15T01:28:08;99454.84;;;8.11;63.97
78182;BME280;67441;50.116;8.696;2023-04-15T01:28:36;99332.09;;;7.41;63.87
78182;BME280;67441;50.116;8.696;2023-04-15T01:29:03;99242.72;;;6.87;63.85
78182;BME280;67441;50.116;8.696;2023-04-15T01:29:30;99247.16;;;6.93;63.88
78182;BME280;67441;50.116;8.696;2023-04-15T01:30:02;99451.31;;;8.06;63.96
78182;BME280;67441;50.116;8.696;2023-04-15T01:30:33;99443.47;;;8.07;63.50
78182;BME280;67441;50.116;8.696;2023-04-15T01:31:12;99436.44;;;8.06;63.85
78182;BME280;67441;50.116;8.696;2023-04-15T01:31:38;99234.91;;;6.90;63.48
78182;BME280;67441;50.116;8.696;2023-04-15T01:32:04;99451.31;;;8.04;63.70
78182;BME280;67441;50.116;8.696;2023-04-15T01:32:31;99247.97;;;6.87;63.78
78182;BME280;67441;50.116;8.696;2023-04-15T01:32:57;99446.06;;;8.04;63.54
78182;BME280;67441;50.116;8.696;2023-04-15T01:33:26;99446.94;;;8.09;63.40
78182;BME280;67441;50.116;8.696;2023-04-15T01:33:51;99448.69;;;8.06;63.30
78182;BME280;67441;50.116;8.696;2023-04-15T01:34:18;99258.44;;;6.89;63.71
78182;BME280;67441;50.116;8.696;2023-04-15T01:34:43;99448.63;;;8.00;63.88
78182;BME280;67441;50.116;8.696;2023-04-15T01:35:09;99258.44;;;6.89;63.41
78182;BME280;67441;50.116;8.696;2023-04-15T01:35:35;99448.66;;;8.03;63.63
78182;BME280;67441;50.116;8.696;2023-04-15T01:36:08;99446.03;;;8.01;64.11
78182;BME280;67441;50.116;8.696;2023-04-15T01:36:38;99387.25;;;7.59;64.29
78182;BME280;67441;50.116;8.696;2023-04-15T01:37:07;99450.41;;;8.02;63.92
78182;BME280;67441;50.116;8.696;2023-04-15T01:37:35;99455.66;;;8.02;64.08
78182;BME280;67441;50.116;8.696;2023-04-15T01:38:11;99261.94;;;6.89;63.46
78182;BME280;67441;50.116;8.696;2023-04-15T01:38:40;99319.63;;;7.03;63.42
78182;BME280;67441;50.116;8.696;2023-04-15T01:39:11;99471.25;;;7.85;63.77
78182;BME280;67441;50.116;8.696;2023-04-15T01:39:39;99332.75;;;7.12;63.79
78182;BME280;67441;50.116;8.696;2023-04-15T01:40:06;99331.97;;;7.21;63.76
78182;BME280;67441;50.116;8.696;2023-04-15T01:40:38;99260.97;;;6.78;63.28
78182;BME280;67441;50.116;8.696;2023-04-15T01:41:05;99262.72;;;6.79;63.03
78182;BME280;67441;50.116;8.696;2023-04-15T01:41:36;99367.03;;;7.43;63.18
78182;BME280;67441;50.116;8.696;2023-04-15T01:42:21;99269.81;;;6.94;63.20
78182;BME280;67441;50.116;8.696;2023-04-15T01:42:50;99239.13;;;6.75;63.49
78182;BME280;67441;50.116;8.696;2023-04-15T01:43:16;99453.00;;;7.98;63.80
78182;BME280;67441;50.116;8.696;2023-04-15T01:43:42;99373.16;;;7.44;63.87
78182;BME280;67441;50.116;8.696;2023-04-15T01:44:08;99335.53;;;7.32;63.65
78182;BME280;67441;50.116;8.696;2023-04-15T01:44:34;99446.03;;;7.97;63.72
78182;BME280;67441;50.116;8.696;2023-04-15T01:45:00;99258.41;;;6.84;63.46
78182;BME280;67441;50.116;8.696;2023-04-15T01:45:26;99453.91;;;8.01;63.24
78182;BME280;67441;50.116;8.696;2023-04-15T01:45:51;99444.25;;;7.96;63.77
78182;BME280;67441;50.116;8.696;2023-04-15T01:46:18;99451.25;;;8.00;63.86
78182;BME280;67441;50.116;8.696;2023-04-15T01:46:45;99464.34;;;7.94;63.12
78182;BME280;67441;50.116;8.696;2023-04-15T01:47:11;99267.16;;;6.88;63.05
78182;BME280;67441;50.116;8.696;2023-04-15T01:47:36;99447.72;;;7.96;62.88
78182;BME280;67441;50.116;8.696;2023-04-15T01:48:02;99452.97;;;7.95;62.97
78182;BME280;67441;50.116;8.696;2023-04-15T01:48:28;99446.00;;;7.95;63.17
78182;BME280;67441;50.116;8.696;2023-04-15T01:48:53;99233.91;;;6.75;63.10
78182;BME280;67441;50.116;8.696;2023-04-15T01:49:19;99445.97;;;7.91;63.45
78182;BME280;67441;50.116;8.696;2023-04-15T01:49:48;99327.63;;;7.26;63.30
78182;BME280;67441;50.116;8.696;2023-04-15T01:50:13;99376.69;;;7.49;62.68
78182;BME280;67441;50.116;8.696;2023-04-15T01:50:39;99446.00;;;7.95;62.82
78182;BME280;67441;50.116;8.696;2023-04-15T01:51:07;99247.94;;;6.84;62.88
78182;BME280;67441;50.116;8.696;2023-04-15T01:51:33;99445.16;;;7.98;63.19
78182;BME280;67441;50.116;8.696;2023-04-15T01:51:59;99328.56;;;7.33;63.03
78182;BME280;67441;50.116;8.696;2023-04-15T01:52:25;99446.00;;;8.00;63.17
78182;BME280;67441;50.116;8.696;2023-04-15T01:52:51;99362.78;;;7.57;63.12
78182;BME280;67441;50.116;8.696;2023-04-15T01:53:17;99445.19;;;8.07;62.91
78182;BME280;67441;50.116;8.696;2023-04-15T01:53:42;99439.03;;;7.97;62.74
78182;BME280;67441;50.116;8.696;2023-04-15T01:54:09;99346.94;;;7.39;62.89
78182;BME280;67441;50.116;8.696;2023-04-15T01:54:34;99438.88;;;7.79;63.27
78182;BME280;67441;50.116;8.696;2023-04-15T01:55:00;99326.75;;;7.21;63.62
78182;BME280;67441;50.116;8.696;2023-04-15T01:55:26;99444.22;;;7.91;63.42
78182;BME280;67441;50.116;8.696;2023-04-15T01:55:52;99459.13;;;7.97;63.12
78182;BME280;67441;50.116;8.696;2023-04-15T01:56:24;99450.38;;;7.98;63.57
78182;BME280;67441;50.116;8.696;2023-04-15T01:56:53;99374.13;;;7.56;63.23
78182;BME280;67441;50.116;8.696;2023-04-15T01:57:22;99268.94;;;6.94;63.49
78182;BME280;67441;50.116;8.696;2023-04-15T01:57:50;99439.84;;;7.92;63.61
78182;BME280;67441;50.116;8.696;2023-04-15T01:58:17;99325.06;;;7.32;62.99
78182;BME280;67441;50.116;8.696;2023-04-15T01:58:46;99237.41;;;6.78;63.21
78182;BME280;67441;50.116;8.696;2023-04-15T01:59:18;99314.53;;;7.23;63.17
78182;BME280;67441;50.116;8.696;2023-04-15T01:59:44;99248.91;;;6.94;62.99
78182;BME280;67441;50.116;8.696;2023-04-15T02:00:10;99392.59;;;7.78;62.98
78182;BME280;67441;50.116;8.696;2023-04-15T02:00:36;99252.41;;;6.98;63.08
78182;BME280;67441;50.116;8.696;2023-04-15T02:01:02;99446.91;;;8.00;63.10
78182;BME280;67441;50.116;8.696;2023-04-15T02:01:34;99252.38;;;6.96;63.20
78182;BME280;67441;50.116;8.696;2023-04-15T02:01:59;99364.47;;;7.51;63.17
78182;BME280;67441;50.116;8.696;2023-04-15T02:02:25;99446.06;;;8.06;63.46
78182;BME280;67441;50.116;8.696;2023-04-15T02:02:54;99439.97;;;8.10;63.48
78182;BME280;67441;50.116;8.696;2023-04-15T02:03:28;99323.44;;;7.45;63.76
78182;BME280;67441;50.116;8.696;2023-04-15T02:03:54;99382.09;;;7.75;63.50
78182;BME280;67441;50.116;8.696;2023-04-15T02:04:20;99440.91;;;8.18;63.61
78182;BME280;67441;50.116;8.696;2023-04-15T02:04:46;99446.16;;;8.18;63.94
78182;BME280;67441;50.116;8.696;2023-04-15T02:05:12;99369.88;;;7.74;63.91
78182;BME280;67441;50.116;8.696;2023-04-15T02:05:39;99334.78;;;7.49;63.58
78182;BME280;67441;50.116;8.696;2023-04-15T02:06:10;99376.03;;;7.80;63.39
78182;BME280;67441;50.116;8.696;2023-04-15T02:06:40;99376.00;;;7.73;63.68
78182;BME280;67441;50.116;8.696;2023-04-15T02:07:08;99453.13;;;8.16;63.83
78182;BME280;67441;50.116;8.696;2023-04-15T02:07:39;99444.38;;;8.17;63.95
78182;BME280;67441;50.116;8.696;2023-04-15T02:08:11;99329.53;;;7.47;64.05
78182;BME280;67441;50.116;8.696;2023-04-15T02:08:37;99446.13;;;8.15;63.75
78182;BME280;67441;50.116;8.696;2023-04-15T02:09:04;99443.53;;;8.18;63.89
78182;BME280;67441;50.116;8.696;2023-04-15T02:09:33;99249.78;;;6.99;63.76
78182;BME280;67441;50.116;8.696;2023-04-15T02:09:59;99446.09;;;8.14;63.87
78182;BME280;67441;50.116;8.696;2023-04-15T02:10:28;99253.31;;;7.03;64.20
78182;BME280;67441;50.116;8.696;2023-04-15T02:10:57;99454.88;;;8.14;64.40
78182;BME280;67441;50.116;8.696;2023-04-15T02:11:25;99272.50;;;7.02;64.01
78182;BME280;67441;50.116;8.696;2023-04-15T02:11:51;99446.06;;;8.06;64.01
78182;BME280;67441;50.116;8.696;2023-04-15T02:12:18;99257.59;;;6.96;63.92
78182;BME280;67441;50.116;8.696;2023-04-15T02:12:47;99334.69;;;7.35;64.09
78182;BME280;67441;50.116;8.696;2023-04-15T02:13:16;99311.88;;;7.19;64.04
78182;BME280;67441;50.116;8.696;2023-04-15T02:13:42;99452.16;;;8.02;64.38
78182;BME280;67441;50.116;8.696;2023-04-15T02:14:11;99308.34;;;7.12;64.44
78182;BME280;67441;50.116;8.696;2023-04-15T02:14:37;99340.72;;;7.26;64.22
78182;BME280;67441;50.116;8.696;2023-04-15T02:15:02;99446.81;;;7.90;64.38
78182;BME280;67441;50.116;8.696;2023-04-15T02:15:29;99337.19;;;7.20;63.35
78182;BME280;67441;50.116;8.696;2023-04-15T02:15:58;99450.34;;;7.90;63.87
78182;BME280;67441;50.116;8.696;2023-04-15T02:16:24;99446.88;;;7.94;63.70
78182;BME280;67441;50.116;8.696;2023-04-15T02:16:54;99381.97;;;7.56;63.65
78182;BME280;67441;50.116;8.696;2023-04-15T02:17:20;99244.34;;;6.70;63.58
78182;BME280;67441;50.116;8.696;2023-04-15T02:17:46;99262.66;;;6.73;63.46
78182;BME280;67441;50.116;8.696;2023-04-15T02:18:15;99252.16;;;6.67;63.61
78182;BME280;67441;50.116;8.696;2023-04-15T02:18:45;99380.13;;;7.43;64.55
78182;BME280;67441;50.116;8.696;2023-04-15T02:19:14;99457.28;;;7.88;64.91
78182;BME280;67441;50.116;8.696;2023-04-15T02:19:39;99404.69;;;7.60;64.44
78182;BME280;67441;50.116;8.696;2023-04-15T02:20:09;99373.22;;;7.53;64.84
78182;BME280;67441;50.116;8.696;2023-04-15T02:20:43;99325.00;;;7.22;64.58
78182;BME280;67441;50.116;8.696;2023-04-15T02:21:11;99368.88;;;7.52;64.90
78182;BME280;67441;50.116;8.696;2023-04-15T02:21:38;99276.78;;;6.94;64.67
78182;BME280;67441;50.116;8.696;2023-04-15T02:22:04;99327.69;;;7.31;64.43
78182;BME280;67441;50.116;8.696;2023-04-15T02:22:34;99390.66;;;7.49;64.90
78182;BME280;67441;50.116;8.696;2023-04-15T02:23:00;99328.47;;;7.22;65.31
78182;BME280;67441;50.116;8.696;2023-04-15T02:23:30;99454.75;;;7.97;65.01
78182;BME280;67441;50.116;8.696;2023-04-15T02:23:56;99372.28;;;7.45;65.26
78182;BME280;67441;50.116;8.696;2023-04-15T02:24:21;99451.16;;;7.86;65.32
78182;BME280;67441;50.116;8.696;2023-04-15T02:24:47;99383.69;;;7.48;65.15
78182;BME280;67441;50.116;8.696;2023-04-15T02:25:14;99253.13;;;6.81;64.96
78182;BME280;67441;50.116;8.696;2023-04-15T02:25:41;99469.59;;;8.00;64.91
78182;BME280;67441;50.116;8.696;2023-04-15T02:26:10;99446.84;;;7.93;64.86
78182;BME280;67441;50.116;8.696;2023-04-15T02:26:36;99388.81;;;7.39;65.33
78182;BME280;67441;50.116;8.696;2023-04-15T02:27:01;99451.16;;;7.84;65.28
78182;BME280;67441;50.116;8.696;2023-04-15T02:27:30;99252.09;;;6.61;64.92
78182;BME280;67441;50.116;8.696;2023-04-15T02:27:57;99278.44;;;6.79;64.96
78182;BME280;67441;50.116;8.696;2023-04-15T02:28:23;99386.25;;;7.42;65.01
78182;BME280;67441;50.116;8.696;2023-04-15T02:28:51;99275.91;;;6.90;64.52
78182;BME280;67441;50.116;8.696;2023-04-15T02:29:17;99450.28;;;7.85;64.76
78182;BME280;67441;50.116;8.696;2023-04-15T02:29:43;99379.31;;;7.50;64.67
78182;BME280;67441;50.116;8.696;2023-04-15T02:30:12;99445.06;;;7.89;64.91
78182;BME280;67441;50.116;8.696;2023-04-15T02:30:38;99452.91;;;7.85;64.89
78182;BME280;67441;50.116;8.696;2023-04-15T02:31:05;99240.81;;;6.66;65.03
78182;BME280;67441;50.116;8.696;2023-04-15T02:31:32;99328.41;;;7.11;65.30
78182;BME280;67441;50.116;8.696;2023-04-15T02:32:01;99452.94;;;7.89;64.65
78182;BME280;67441;50.116;8.696;2023-04-15T02:32:26;99446.78;;;7.85;65.27